Terminal Aerodrome Forecast
Issued by NWS Cleveland, OH

Home | Current Version | Previous Version | Text Only | Print | Product List | Glossary On
Versions: 1 2 3 4 5 6 7 8 9 10 11 12 13 14 15 16 17 18 19 20
000
FTUS41 KCLE 300200 AAA
TAFYNG
TAF AMD
KYNG 300257Z 3003/3024 22018G28KT 6SM -SHRASN SCT025 OVC040
      TEMPO 3003/3006 -PL BKN025
     FM300600 23015G25KT 4SM -SHRA OVC025
     FM301300 27012G22KT P6SM OVC025=

USA.gov is the U.S. government's official web portal to all federal, state and local government web resources and services.